Time;durP1;ratioP1;P1;durP2;ratioP2;P2;SDS_P1;SDS_P2;PMS_P1;PMS_P2;Temp;Humidity;BMP_temperature;BMP_pressure;BME280_temperature;BME280_humidity;BME280_pressure;Samples;Min_cycle;Max_cycle;Signal;HPM_P1;HPM_P2
2021/01/20 00:01:57;;;;;;;8.00;6.28;;;5.70;99.90;;;;;;5074122;28;20028;-65
2021/01/20 00:04:22;;;;;;;8.57;6.40;;;5.70;99.90;;;;;;5078936;28;20036;-65
2021/01/20 00:06:49;;;;;;;7.47;6.75;;;5.70;99.90;;;;;;5075347;28;20068;-64
2021/01/20 00:09:14;;;;;;;8.35;6.10;;;5.80;99.90;;;;;;5078003;28;20058;-65
2021/01/20 00:11:40;;;;;;;8.13;6.50;;;5.70;99.90;;;;;;5076423;28;20060;-65
2021/01/20 00:14:06;;;;;;;9.07;6.28;;;5.70;99.90;;;;;;5076644;28;20024;-65
2021/01/20 00:16:31;;;;;;;8.75;6.03;;;5.80;99.90;;;;;;5077303;28;20040;-64
2021/01/20 00:18:57;;;;;;;13.05;7.68;;;5.80;99.90;;;;;;5075091;28;20017;-64
2021/01/20 00:21:24;;;;;;;7.78;6.45;;;5.90;99.90;;;;;;5078513;28;20032;-65
2021/01/20 00:23:50;;;;;;;10.90;7.05;;;5.90;99.90;;;;;;5074074;28;20020;-65
2021/01/20 00:26:16;;;;;;;10.40;6.13;;;5.90;99.90;;;;;;5079590;28;20039;-65
2021/01/20 00:28:42;;;;;;;8.35;6.45;;;5.60;99.90;;;;;;5073712;28;20025;-65
2021/01/20 00:31:08;;;;;;;8.80;7.00;;;5.70;99.90;;;;;;5090397;28;20024;-65
2021/01/20 00:33:33;;;;;;;13.80;7.10;;;5.70;99.90;;;;;;5086572;28;20086;-65
2021/01/20 00:35:59;;;;;;;8.05;6.45;;;5.80;99.90;;;;;;5079482;28;20040;-65
2021/01/20 00:38:25;;;;;;;8.63;7.15;;;5.80;99.90;;;;;;5055183;28;20024;-64
2021/01/20 00:40:50;;;;;;;9.73;6.45;;;5.90;99.90;;;;;;5079957;28;20032;-65
2021/01/20 00:43:16;;;;;;;6.95;6.18;;;5.80;99.90;;;;;;5073349;28;20599;-65
2021/01/20 00:45:42;;;;;;;8.73;6.32;;;5.90;99.90;;;;;;5079395;28;20036;-65
2021/01/20 00:48:11;;;;;;;11.90;6.10;;;6.00;99.90;;;;;;5072224;28;20039;-65
2021/01/20 00:50:37;;;;;;;6.43;5.93;;;6.00;99.90;;;;;;5079802;28;20493;-64
2021/01/20 00:53:03;;;;;;;7.45;6.75;;;6.00;99.90;;;;;;5071607;28;20400;-64
2021/01/20 00:55:29;;;;;;;7.50;6.65;;;5.80;99.90;;;;;;5080923;28;20052;-65
2021/01/20 00:57:55;;;;;;;11.45;6.25;;;6.00;99.90;;;;;;5071073;28;20060;-65
2021/01/20 01:00:21;;;;;;;12.85;6.45;;;6.00;99.90;;;;;;5087288;28;20103;-65
2021/01/20 01:02:46;;;;;;;7.40;5.78;;;5.80;99.90;;;;;;5110311;28;20068;-65
2021/01/20 01:05:12;;;;;;;10.45;6.93;;;6.00;99.90;;;;;;5081978;28;20024;-66
2021/01/20 01:07:38;;;;;;;6.45;5.90;;;6.00;99.90;;;;;;5070514;28;20024;-65
2021/01/20 01:10:05;;;;;;;8.57;6.45;;;6.00;99.90;;;;;;5063353;28;20107;-65
2021/01/20 01:12:30;;;;;;;13.50;6.47;;;6.00;99.90;;;;;;5070300;28;20116;-65
2021/01/20 01:14:56;;;;;;;9.45;6.68;;;6.00;99.90;;;;;;5081473;28;20107;-65
2021/01/20 01:17:22;;;;;;;14.73;7.00;;;6.00;99.90;;;;;;5070252;28;20033;-66
2021/01/20 01:19:47;;;;;;;10.63;7.03;;;6.00;99.90;;;;;;5080793;28;20020;-65
2021/01/20 01:22:13;;;;;;;8.07;7.38;;;5.90;99.90;;;;;;5070746;28;20082;-63
2021/01/20 01:24:39;;;;;;;8.35;6.65;;;6.00;99.90;;;;;;5079664;28;20016;-65
2021/01/20 01:27:05;;;;;;;9.35;7.00;;;5.90;99.90;;;;;;5071703;28;20641;-65
2021/01/20 01:29:31;;;;;;;10.98;6.90;;;6.10;99.90;;;;;;5078512;28;20032;-64
2021/01/20 01:31:57;;;;;;;10.10;7.05;;;6.00;99.90;;;;;;5090290;28;20595;-65
2021/01/20 01:34:23;;;;;;;9.32;7.50;;;6.20;99.90;;;;;;5083368;28;20392;-65
2021/01/20 01:36:49;;;;;;;11.15;7.35;;;6.10;99.90;;;;;;5073651;28;20040;-65
2021/01/20 01:39:15;;;;;;;9.07;6.63;;;6.00;99.90;;;;;;5076063;28;20020;-66
2021/01/20 01:41:43;;;;;;;8.45;7.57;;;5.90;99.90;;;;;;5074908;28;20504;-65
2021/01/20 01:44:09;;;;;;;14.15;6.80;;;6.20;99.90;;;;;;5075099;28;20089;-65
2021/01/20 01:46:35;;;;;;;10.48;7.47;;;5.90;99.90;;;;;;5075558;28;20063;-65
2021/01/20 01:49:01;;;;;;;8.32;6.45;;;6.10;99.90;;;;;;5073364;28;20021;-65
2021/01/20 01:51:27;;;;;;;7.40;6.55;;;6.00;99.90;;;;;;5076558;28;20027;-65
2021/01/20 01:53:53;;;;;;;8.75;6.38;;;6.00;99.90;;;;;;5072755;28;20020;-64
2021/01/20 01:56:23;;;;;;;9.93;7.00;;;5.90;99.90;;;;;;5068250;28;20039;-66
2021/01/20 01:58:51;;;;;;;11.43;6.55;;;6.10;99.90;;;;;;5072172;28;20038;-65
2021/01/20 02:01:19;;;;;;;8.48;7.25;;;6.20;99.90;;;;;;5080562;28;20030;-66
2021/01/20 02:03:44;;;;;;;10.10;7.28;;;6.00;99.90;;;;;;5083989;28;20025;-65
2021/01/20 02:06:10;;;;;;;9.38;7.82;;;6.10;99.90;;;;;;5078240;28;20074;-64
2021/01/20 02:08:36;;;;;;;8.57;6.35;;;6.00;99.90;;;;;;5072178;28;20032;-65
2021/01/20 02:11:20;;;;;;;7.97;6.75;;;6.10;99.90;;;;;;5078319;28;20021;-65
2021/01/20 02:14:05;;;;;;;8.20;6.47;;;6.20;99.90;;;;;;5072140;28;20025;-64
2021/01/20 02:16:34;;;;;;;10.45;6.70;;;6.20;99.90;;;;;;5082941;28;20063;-65
2021/01/20 02:19:09;;;;;;;11.57;6.82;;;6.10;99.90;;;;;;5083099;28;20625;-65
2021/01/20 02:21:35;;;;;;;7.90;6.13;;;6.30;99.90;;;;;;5075253;28;20028;-66
2021/01/20 02:24:07;;;;;;;8.70;6.82;;;6.30;99.90;;;;;;5073473;28;20628;-65
2021/01/20 02:26:38;;;;;;;9.30;6.40;;;6.40;99.90;;;;;;5075558;28;20047;-65
2021/01/20 02:29:18;;;;;;;10.65;6.43;;;6.20;99.90;;;;;;5069492;28;20025;-65
2021/01/20 02:31:46;;;;;;;7.35;6.40;;;6.40;99.90;;;;;;5089291;28;20020;-65
2021/01/20 02:34:15;;;;;;;9.07;6.75;;;6.30;99.90;;;;;;5082733;28;20024;-64
2021/01/20 02:36:42;;;;;;;8.55;6.18;;;6.30;99.90;;;;;;5074252;28;20037;-65
2021/01/20 02:39:08;;;;;;;12.20;6.85;;;6.10;99.90;;;;;;5074363;28;20404;-65
2021/01/20 02:41:34;;;;;;;8.02;6.38;;;6.20;99.90;;;;;;5075618;28;20433;-65
2021/01/20 02:44:04;;;;;;;11.77;7.10;;;6.30;99.90;;;;;;5072851;28;20079;-65
2021/01/20 02:46:31;;;;;;;7.85;7.05;;;6.40;99.90;;;;;;5075744;28;20017;-64
2021/01/20 02:48:58;;;;;;;9.23;7.10;;;6.30;99.90;;;;;;5072488;28;20027;-65
2021/01/20 02:51:39;;;;;;;12.85;6.88;;;6.20;99.90;;;;;;5076631;28;20099;-64
2021/01/20 02:54:06;;;;;;;12.77;7.18;;;6.20;99.90;;;;;;5073667;28;20507;-65
2021/01/20 02:56:33;;;;;;;9.20;7.25;;;6.30;99.90;;;;;;5075625;28;20404;-65
2021/01/20 02:59:02;;;;;;;8.77;6.93;;;6.30;99.90;;;;;;5072811;28;20028;-65
2021/01/20 03:01:30;;;;;;;10.23;7.43;;;6.20;99.90;;;;;;5079709;28;20066;-65
2021/01/20 03:03:59;;;;;;;15.32;7.78;;;6.20;99.90;;;;;;5076010;28;20071;-65
2021/01/20 03:06:25;;;;;;;11.98;7.55;;;6.30;99.90;;;;;;5080317;28;20511;-65
2021/01/20 03:08:52;;;;;;;11.18;7.13;;;6.20;99.90;;;;;;5075335;28;20502;-64
2021/01/20 03:11:17;;;;;;;11.50;7.93;;;6.30;99.90;;;;;;5081247;28;20074;-65
2021/01/20 03:13:45;;;;;;;18.60;8.25;;;6.30;99.90;;;;;;5075092;28;20099;-65
2021/01/20 03:16:11;;;;;;;18.02;8.40;;;6.10;99.90;;;;;;5081204;28;20035;-65
2021/01/20 03:18:37;;;;;;;14.60;9.38;;;6.40;99.90;;;;;;5074897;28;20150;-65
2021/01/20 03:21:03;;;;;;;14.75;8.82;;;6.30;99.90;;;;;;5081209;28;20111;-65
2021/01/20 03:23:29;;;;;;;15.85;9.25;;;6.20;99.90;;;;;;5075024;28;20016;-65
2021/01/20 03:25:56;;;;;;;19.02;10.20;;;6.30;99.90;;;;;;5081068;28;20485;-66
2021/01/20 03:28:25;;;;;;;17.45;10.13;;;6.30;99.90;;;;;;5075136;28;20061;-65
2021/01/20 03:30:51;;;;;;;17.98;10.00;;;6.30;99.90;;;;;;5088803;28;20058;-65
2021/01/20 03:33:17;;;;;;;15.45;9.73;;;6.30;99.90;;;;;;5090662;28;20028;-65
2021/01/20 03:35:43;;;;;;;18.15;11.23;;;6.30;99.90;;;;;;5080675;28;20489;-65
2021/01/20 03:38:09;;;;;;;16.83;9.80;;;6.30;99.90;;;;;;5055454;28;20035;-64
2021/01/20 03:40:38;;;;;;;18.70;10.23;;;6.50;99.90;;;;;;5082003;28;20021;-65
2021/01/20 03:43:03;;;;;;;17.98;9.80;;;6.40;99.90;;;;;;5072354;28;20028;-65
2021/01/20 03:45:29;;;;;;;14.90;10.77;;;6.40;99.90;;;;;;5082627;28;20082;-65
2021/01/20 03:47:55;;;;;;;20.60;11.32;;;6.30;99.90;;;;;;5072407;28;20024;-64
2021/01/20 03:50:20;;;;;;;20.60;11.57;;;6.30;99.90;;;;;;5082541;28;20104;-65
2021/01/20 03:52:46;;;;;;;16.52;10.73;;;6.50;99.90;;;;;;5071995;28;20103;-65
2021/01/20 03:55:12;;;;;;;17.38;10.88;;;6.40;99.90;;;;;;5083135;28;20024;-66
2021/01/20 03:57:37;;;;;;;19.20;11.60;;;6.40;99.90;;;;;;5071729;28;20037;-65
2021/01/20 04:00:04;;;;;;;15.63;10.77;;;6.40;99.90;;;;;;5083804;28;20024;-65
2021/01/20 04:02:30;;;;;;;14.38;10.88;;;6.40;99.90;;;;;;5091332;28;20103;-64
2021/01/20 04:04:56;;;;;;;25.33;12.15;;;6.40;99.90;;;;;;5090036;28;20103;-65
2021/01/20 04:07:21;;;;;;;24.38;11.52;;;6.40;99.90;;;;;;5092143;28;20074;-65
2021/01/20 04:09:47;;;;;;;18.48;10.95;;;6.40;99.90;;;;;;5088933;28;20534;-65
2021/01/20 04:12:13;;;;;;;17.80;12.30;;;6.50;99.90;;;;;;5073096;28;20030;-66
2021/01/20 04:14:38;;;;;;;28.50;12.07;;;6.30;99.90;;;;;;5085219;28;20102;-65
2021/01/20 04:17:04;;;;;;;18.23;12.13;;;6.40;99.90;;;;;;5087274;28;20042;-65
2021/01/20 04:19:29;;;;;;;22.23;11.23;;;6.40;99.90;;;;;;5084569;28;20020;-66
2021/01/20 04:21:55;;;;;;;23.33;11.77;;;6.40;99.90;;;;;;5074760;28;20466;-65
2021/01/20 04:24:21;;;;;;;21.13;12.52;;;6.30;99.90;;;;;;5077841;28;20453;-65
2021/01/20 04:26:46;;;;;;;18.83;12.27;;;6.20;99.90;;;;;;5075948;28;20099;-65
2021/01/20 04:29:12;;;;;;;22.48;12.25;;;6.20;99.90;;;;;;5080672;28;20526;-62
2021/01/20 04:31:39;;;;;;;19.02;12.25;;;6.20;99.90;;;;;;5090530;28;20057;-64
2021/01/20 04:34:05;;;;;;;26.02;13.55;;;6.30;99.90;;;;;;5088519;28;20023;-64
2021/01/20 04:36:31;;;;;;;24.27;13.75;;;6.40;99.90;;;;;;5090408;28;20123;-65
2021/01/20 04:38:57;;;;;;;22.10;13.07;;;6.30;99.90;;;;;;5066611;28;20119;-65
2021/01/20 04:41:22;;;;;;;19.15;12.93;;;6.40;99.90;;;;;;5079019;28;20037;-65
2021/01/20 04:43:48;;;;;;;20.38;12.88;;;6.40;99.90;;;;;;5073367;28;20043;-65
2021/01/20 04:46:14;;;;;;;23.10;13.32;;;6.30;99.90;;;;;;5079742;28;20479;-65
2021/01/20 04:48:40;;;;;;;21.30;12.50;;;6.20;99.90;;;;;;5073270;28;20024;-65
2021/01/20 04:51:09;;;;;;;23.30;12.80;;;6.20;99.90;;;;;;5089806;28;20161;-64
2021/01/20 04:53:38;;;;;;;28.50;14.63;;;6.30;99.90;;;;;;5086786;28;20055;-65
2021/01/20 04:56:14;;;;;;;20.23;12.52;;;6.20;99.90;;;;;;5079467;28;20061;-65
2021/01/20 04:58:40;;;;;;;21.48;13.65;;;6.10;99.90;;;;;;5084789;28;20524;-65
2021/01/20 05:01:06;;;;;;;21.65;13.75;;;6.30;99.90;;;;;;5079340;28;20029;-66
2021/01/20 05:03:32;;;;;;;23.73;13.32;;;6.20;99.90;;;;;;5055056;28;20028;-65
2021/01/20 05:05:58;;;;;;;19.50;13.45;;;6.20;99.90;;;;;;5079079;28;20045;-65
2021/01/20 05:08:23;;;;;;;18.00;12.90;;;6.30;99.90;;;;;;5073134;28;20032;-64
2021/01/20 05:10:50;;;;;;;24.23;13.38;;;6.40;99.90;;;;;;5079405;28;20020;-65
2021/01/20 05:13:26;;;;;;;25.77;13.52;;;6.40;99.90;;;;;;5085413;28;20471;-65
2021/01/20 05:15:52;;;;;;;19.95;13.07;;;6.40;99.90;;;;;;5089847;28;20213;-64
2021/01/20 05:18:18;;;;;;;20.20;13.40;;;6.40;99.90;;;;;;5088723;28;20036;-64
2021/01/20 05:20:44;;;;;;;18.95;13.43;;;6.40;99.90;;;;;;5089959;28;20042;-65
2021/01/20 05:23:10;;;;;;;24.17;13.70;;;6.20;99.90;;;;;;5069433;28;20024;-65
2021/01/20 05:25:41;;;;;;;20.27;12.57;;;6.40;99.90;;;;;;5080280;28;20442;-65
2021/01/20 05:28:25;;;;;;;17.65;13.30;;;6.10;99.90;;;;;;5085540;28;20032;-65
2021/01/20 05:30:56;;;;;;;16.85;12.82;;;6.20;99.90;;;;;;5086347;28;20422;-65
2021/01/20 05:33:44;;;;;;;18.02;11.77;;;6.30;99.90;;;;;;5087914;28;20036;-65
2021/01/20 05:36:13;;;;;;;27.23;12.50;;;6.30;99.90;;;;;;5077906;28;20044;-65
2021/01/20 05:38:40;;;;;;;20.77;11.70;;;6.10;99.90;;;;;;5072575;28;20510;-65
2021/01/20 05:41:29;;;;;;;18.25;12.63;;;6.20;99.90;;;;;;5078886;28;20024;-65
2021/01/20 05:44:12;;;;;;;20.48;12.93;;;6.20;99.90;;;;;;5072596;28;20052;-66
2021/01/20 05:46:40;;;;;;;24.42;12.18;;;6.20;99.90;;;;;;5088794;28;20012;-65
2021/01/20 05:49:07;;;;;;;22.77;11.63;;;6.20;99.90;;;;;;5083476;28;20062;-65
2021/01/20 05:51:43;;;;;;;17.75;12.32;;;6.30;99.90;;;;;;5076616;28;20028;-65
2021/01/20 05:54:10;;;;;;;17.63;12.75;;;6.20;99.90;;;;;;5074555;28;20021;-65
2021/01/20 05:56:36;;;;;;;25.05;12.65;;;6.40;99.90;;;;;;5076168;28;20449;-65
2021/01/20 05:59:09;;;;;;;20.27;13.68;;;6.40;99.90;;;;;;5077601;28;20036;-64
2021/01/20 06:01:38;;;;;;;20.75;13.20;;;6.30;99.90;;;;;;5089841;28;20150;-65
2021/01/20 06:04:07;;;;;;;20.75;13.45;;;6.40;99.90;;;;;;5086695;28;20020;-65
2021/01/20 06:06:33;;;;;;;23.92;13.05;;;6.40;99.90;;;;;;5082868;28;20027;-65
2021/01/20 06:09:01;;;;;;;21.70;12.98;;;6.40;99.90;;;;;;5083493;28;20389;-65
2021/01/20 06:11:26;;;;;;;23.40;13.27;;;6.30;99.90;;;;;;5077413;28;20024;-65
2021/01/20 06:13:53;;;;;;;14.80;11.40;;;6.40;99.90;;;;;;5074260;28;20031;-64
2021/01/20 06:16:39;;;;;;;16.60;12.75;;;6.30;99.90;;;;;;5088808;28;20032;-64
2021/01/20 06:19:09;;;;;;;;;;;6.40;99.90;;;;;;5083532;28;20020;-65
2021/01/20 06:21:36;;;;;;;18.27;12.15;;;6.40;99.90;;;;;;5075972;28;19904;-64
2021/01/20 06:24:27;;;;;;;18.13;12.98;;;6.50;99.90;;;;;;5073015;28;20029;-64
2021/01/20 06:27:05;;;;;;;20.05;12.65;;;6.40;99.90;;;;;;5073853;28;20047;-65
2021/01/20 06:29:36;;;;;;;20.00;13.10;;;6.40;99.90;;;;;;5077039;28;20034;-65
2021/01/20 06:32:02;;;;;;;22.52;12.75;;;6.40;99.90;;;;;;5088582;28;20099;-65
2021/01/20 06:34:28;;;;;;;18.70;12.73;;;6.40;99.90;;;;;;5087515;28;20023;-64
2021/01/20 06:36:54;;;;;;;26.95;12.90;;;6.50;99.90;;;;;;5092317;28;20036;-65
2021/01/20 06:39:31;;;;;;;26.30;14.25;;;6.60;99.90;;;;;;5090845;28;20054;-63
2021/01/20 06:41:58;;;;;;;19.92;13.35;;;6.50;99.90;;;;;;5092239;28;20504;-64
2021/01/20 06:44:24;;;;;;;19.48;12.93;;;6.50;99.90;;;;;;5090643;28;20039;-64
2021/01/20 06:46:56;;;;;;;24.88;13.38;;;6.50;99.90;;;;;;5092411;28;20012;-66
2021/01/20 06:49:26;;;;;;;23.90;13.35;;;6.70;99.90;;;;;;5090557;28;20120;-64
2021/01/20 06:52:13;;;;;;;21.98;13.93;;;6.70;99.90;;;;;;5092311;28;21153;-64
2021/01/20 06:54:43;;;;;;;22.08;13.13;;;6.70;99.90;;;;;;5090547;28;20075;-64
2021/01/20 06:57:27;;;;;;;20.17;13.57;;;6.70;99.90;;;;;;5092835;28;20040;-63
2021/01/20 07:00:14;;;;;;;25.27;14.40;;;6.70;99.90;;;;;;5090092;28;20023;-64
2021/01/20 07:03:00;;;;;;;;;;;6.70;99.90;;;;;;5093035;28;20452;-64
2021/01/20 07:05:32;;;;;;;22.92;14.32;;;6.80;99.90;;;;;;5091399;28;19904;-64
2021/01/20 07:07:58;;;;;;;23.35;14.02;;;6.70;99.90;;;;;;5088978;28;20016;-64
2021/01/20 07:10:27;;;;;;;19.05;13.15;;;6.80;99.90;;;;;;5092417;28;20031;-64
2021/01/20 07:13:18;;;;;;;22.90;12.68;;;6.90;99.90;;;;;;5093204;28;20472;-64
2021/01/20 07:15:48;;;;;;;27.60;13.38;;;6.80;99.90;;;;;;5082687;28;20097;-64
2021/01/20 07:18:16;;;;;;;22.40;13.55;;;6.90;99.90;;;;;;5090711;28;20066;-64
2021/01/20 07:20:43;;;;;;;26.00;13.00;;;6.90;99.90;;;;;;5092055;28;20408;-64
2021/01/20 07:23:09;;;;;;;21.70;12.60;;;6.80;99.90;;;;;;5090932;28;20024;-65
2021/01/20 07:25:35;;;;;;;20.77;12.98;;;6.80;99.90;;;;;;5082833;28;20553;-63
2021/01/20 07:28:01;;;;;;;25.38;13.70;;;6.70;99.90;;;;;;5072974;28;20027;-62
2021/01/20 07:30:27;;;;;;;21.38;13.82;;;6.80;99.90;;;;;;5086680;28;20020;-63
2021/01/20 07:32:53;;;;;;;17.15;13.90;;;6.70;99.90;;;;;;5091911;28;20024;-64
2021/01/20 07:35:21;;;;;;;20.27;13.98;;;6.80;99.90;;;;;;5082960;28;20020;-64
2021/01/20 07:37:57;;;;;;;17.77;12.15;;;6.80;99.90;;;;;;5071982;28;20468;-64
2021/01/20 07:40:28;;;;;;;24.67;12.63;;;6.70;99.90;;;;;;5081105;28;20039;-63
2021/01/20 07:42:54;;;;;;;18.90;12.05;;;6.80;99.90;;;;;;5091866;28;20034;-63
2021/01/20 07:45:32;;;;;;;24.80;13.60;;;6.70;99.90;;;;;;5083119;28;20412;-65
2021/01/20 07:47:59;;;;;;;15.75;11.88;;;6.90;99.90;;;;;;5071850;28;20020;-63
2021/01/20 07:50:38;;;;;;;21.35;13.13;;;6.80;99.90;;;;;;5082687;28;20024;-66
2021/01/20 07:53:05;;;;;;;19.42;13.20;;;6.80;99.90;;;;;;5072382;28;20099;-63
2021/01/20 07:55:32;;;;;;;18.92;12.07;;;6.90;99.90;;;;;;5083031;28;20565;-65
2021/01/20 07:57:59;;;;;;;29.17;13.10;;;6.90;99.90;;;;;;5072085;28;20063;-65
2021/01/20 08:00:25;;;;;;;19.38;13.73;;;6.80;99.90;;;;;;5082584;28;20020;-66
2021/01/20 08:02:51;;;;;;;24.70;14.20;;;6.80;99.90;;;;;;5071764;28;20024;-64
2021/01/20 08:05:17;;;;;;;23.45;13.38;;;6.90;99.90;;;;;;5079697;28;20028;-65
2021/01/20 08:07:43;;;;;;;17.98;12.35;;;7.00;99.90;;;;;;5073937;28;20039;-64
2021/01/20 08:10:19;;;;;;;18.88;11.55;;;7.10;99.90;;;;;;5084287;28;20032;-65
2021/01/20 08:12:45;;;;;;;;;;;7.10;99.90;;;;;;5072087;28;20016;-65
2021/01/20 08:15:12;;;;;;;22.37;11.83;;;7.10;99.90;;;;;;5084223;28;19949;-63
2021/01/20 08:17:38;;;;;;;20.95;12.68;;;7.20;99.90;;;;;;5091187;28;20028;-61
2021/01/20 08:20:04;;;;;;;17.17;12.68;;;7.20;99.90;;;;;;5082580;28;20103;-61
2021/01/20 08:22:30;;;;;;;25.67;12.48;;;7.20;99.90;;;;;;5069691;28;20048;-62
2021/01/20 08:24:56;;;;;;;19.83;13.30;;;7.20;99.90;;;;;;5080587;28;20096;-61
2021/01/20 08:27:26;;;;;;;16.85;12.43;;;7.20;99.90;;;;;;5070327;28;20025;-61
2021/01/20 08:29:54;;;;;;;18.33;12.05;;;7.20;99.90;;;;;;5079432;28;20028;-61
2021/01/20 08:32:20;;;;;;;21.65;12.80;;;7.30;99.90;;;;;;5088071;28;20026;-61
2021/01/20 08:34:48;;;;;;;18.50;12.90;;;7.30;99.90;;;;;;5085318;28;20085;-61
2021/01/20 08:37:21;;;;;;;22.52;13.30;;;7.40;99.90;;;;;;5090150;28;20449;-62
2021/01/20 08:39:55;;;;;;;20.73;13.27;;;7.50;99.90;;;;;;5086904;28;20020;-70
2021/01/20 08:42:32;;;;;;;23.08;13.18;;;7.60;99.90;;;;;;5090631;28;20392;-72
2021/01/20 08:45:16;;;;;;;24.33;12.95;;;7.60;99.90;;;;;;5084155;28;20047;-72
2021/01/20 08:48:07;;;;;;;18.52;12.68;;;7.60;99.90;;;;;;5081300;28;20024;-68
2021/01/20 08:50:45;;;;;;;25.98;13.25;;;7.60;99.90;;;;;;5079677;28;20030;-72
2021/01/20 08:53:13;;;;;;;19.20;13.32;;;7.70;99.90;;;;;;5089198;28;20039;-72
2021/01/20 08:55:59;;;;;;;23.88;13.45;;;7.80;99.90;;;;;;5080969;28;20043;-70
2021/01/20 08:58:26;;;;;;;24.17;12.80;;;7.90;99.90;;;;;;5072686;28;20445;-71
2021/01/20 09:00:53;;;;;;;19.90;11.90;;;7.80;99.90;;;;;;5079413;28;20111;-73
2021/01/20 09:03:24;;;;;;;20.75;13.07;;;7.90;99.90;;;;;;5073976;28;20024;-73
2021/01/20 09:05:51;;;;;;;19.75;12.13;;;7.90;99.90;;;;;;5085550;28;20048;-77
2021/01/20 09:08:17;;;;;;;19.40;12.55;;;8.00;99.90;;;;;;5088598;28;20039;-72
2021/01/20 09:10:44;;;;;;;19.25;13.40;;;8.00;99.90;;;;;;5088870;28;20683;-67
2021/01/20 09:13:10;;;;;;;19.50;13.45;;;8.10;99.90;;;;;;5088706;28;20455;-73
2021/01/20 09:15:36;;;;;;;16.88;13.25;;;8.10;99.90;;;;;;5084989;28;20446;-72
2021/01/20 09:18:02;;;;;;;21.58;13.32;;;8.20;99.90;;;;;;5088610;28;20112;-72
2021/01/20 09:20:27;;;;;;;17.67;12.98;;;8.20;99.90;;;;;;5088407;28;20024;-65
2021/01/20 09:22:53;;;;;;;18.67;13.05;;;8.30;99.90;;;;;;5089145;28;20016;-70
2021/01/20 09:25:19;;;;;;;22.27;13.38;;;8.30;99.90;;;;;;5089330;28;20032;-65
2021/01/20 09:27:44;;;;;;;26.38;12.20;;;8.40;99.90;;;;;;5090108;28;20024;-69
2021/01/20 09:30:11;;;;;;;19.17;11.73;;;8.30;99.90;;;;;;5089826;28;20111;-71
2021/01/20 09:32:38;;;;;;;15.75;11.80;;;8.50;99.90;;;;;;5089943;28;20027;-69
2021/01/20 09:35:06;;;;;;;13.13;10.70;;;8.50;99.90;;;;;;5082374;28;20028;-69
2021/01/20 09:37:32;;;;;;;11.85;10.65;;;8.60;99.90;;;;;;5074463;28;20024;-66
2021/01/20 09:39:58;;;;;;;15.38;9.88;;;8.60;99.90;;;;;;5084437;28;20031;-61
2021/01/20 09:42:23;;;;;;;12.95;9.27;;;8.60;99.90;;;;;;5072799;28;20032;-63
2021/01/20 09:44:49;;;;;;;12.13;8.93;;;8.80;99.90;;;;;;5088770;28;20040;-61
2021/01/20 09:47:14;;;;;;;16.65;8.48;;;8.90;99.90;;;;;;5089706;28;20028;-61
2021/01/20 09:49:42;;;;;;;8.95;7.88;;;8.90;99.90;;;;;;5083402;28;20054;-61
2021/01/20 09:52:10;;;;;;;11.88;8.00;;;8.90;99.90;;;;;;5072243;28;20052;-61
2021/01/20 09:54:36;;;;;;;13.70;8.38;;;9.00;99.90;;;;;;5077976;28;20023;-61
2021/01/20 09:57:03;;;;;;;13.77;7.30;;;9.10;99.90;;;;;;5073327;28;20127;-61
2021/01/20 09:59:29;;;;;;;16.92;8.23;;;9.10;99.90;;;;;;5076908;28;20012;-61
2021/01/20 10:01:54;;;;;;;8.25;7.07;;;9.20;99.90;;;;;;5084466;28;20168;-61
2021/01/20 10:04:20;;;;;;;9.63;6.63;;;9.20;99.90;;;;;;5083100;28;20054;-62
2021/01/20 10:06:46;;;;;;;10.27;6.45;;;9.20;99.90;;;;;;5075097;28;20032;-62
2021/01/20 10:09:11;;;;;;;9.32;6.45;;;9.30;99.90;;;;;;5073627;28;20017;-61
2021/01/20 10:11:37;;;;;;;11.45;6.60;;;9.40;99.90;;;;;;5076711;28;20074;-62
2021/01/20 10:14:03;;;;;;;11.40;7.20;;;9.50;99.90;;;;;;5077026;28;20020;-61
2021/01/20 10:16:28;;;;;;;9.30;6.82;;;9.50;99.90;;;;;;5089234;28;20040;-62
2021/01/20 10:18:54;;;;;;;12.52;6.60;;;9.50;99.90;;;;;;5087538;28;20503;-61
2021/01/20 10:21:19;;;;;;;8.25;5.05;;;9.60;99.90;;;;;;5089223;28;20035;-61
2021/01/20 10:23:45;;;;;;;6.95;5.72;;;9.80;99.90;;;;;;5087577;28;20082;-61
2021/01/20 10:26:11;;;;;;;11.23;5.18;;;9.70;99.90;;;;;;5089193;28;20024;-61
2021/01/20 10:28:36;;;;;;;8.88;5.88;;;9.80;99.90;;;;;;5087475;28;20020;-61
2021/01/20 10:31:02;;;;;;;11.00;5.13;;;9.90;99.90;;;;;;5089153;28;20018;-61
2021/01/20 10:33:28;;;;;;;8.68;4.47;;;10.00;99.90;;;;;;5087217;28;20021;-61
2021/01/20 10:35:53;;;;;;;5.20;4.65;;;9.80;99.90;;;;;;5082039;28;20139;-61
2021/01/20 10:38:20;;;;;;;14.02;6.05;;;10.00;99.90;;;;;;5072748;28;20103;-61
2021/01/20 10:40:45;;;;;;;13.80;7.72;;;9.90;99.90;;;;;;5084568;28;20028;-61
2021/01/20 10:43:11;;;;;;;13.30;5.35;;;9.80;99.90;;;;;;5087722;28;20556;-61
2021/01/20 10:45:37;;;;;;;12.20;5.82;;;9.90;99.90;;;;;;5080283;28;20032;-61
2021/01/20 10:48:03;;;;;;;6.75;5.47;;;10.00;99.90;;;;;;5074906;28;20104;-61
2021/01/20 10:50:28;;;;;;;7.47;4.70;;;9.90;99.90;;;;;;5079438;28;20028;-61
2021/01/20 10:52:54;;;;;;;8.68;5.68;;;9.90;99.90;;;;;;5089294;28;20020;-61
2021/01/20 10:55:19;;;;;;;13.93;6.07;;;9.90;99.90;;;;;;5077294;28;20572;-61
2021/01/20 10:57:45;;;;;;;9.93;5.05;;;10.00;99.90;;;;;;5089496;28;20350;-60
2021/01/20 11:00:12;;;;;;;5.00;4.50;;;10.10;99.90;;;;;;5080467;28;20034;-61
2021/01/20 11:02:38;;;;;;;8.00;4.82;;;10.10;99.90;;;;;;5068383;28;20467;-61
2021/01/20 11:05:04;;;;;;;9.18;5.35;;;9.90;99.90;;;;;;5079116;28;20102;-60
2021/01/20 11:07:29;;;;;;;12.18;4.60;;;9.90;99.90;;;;;;5068311;28;20103;-61
2021/01/20 11:09:56;;;;;;;8.45;5.47;;;9.90;99.90;;;;;;5078679;28;20112;-61
2021/01/20 11:12:22;;;;;;;10.32;4.93;;;9.90;99.90;;;;;;5068855;28;20041;-61
2021/01/20 11:14:48;;;;;;;7.43;5.20;;;10.00;99.90;;;;;;5078609;28;20028;-61
2021/01/20 11:17:14;;;;;;;8.10;4.93;;;9.90;99.90;;;;;;5070752;28;20040;-60
2021/01/20 11:19:39;;;;;;;8.07;5.25;;;9.90;99.90;;;;;;5077314;28;20031;-61
2021/01/20 11:22:07;;;;;;;8.43;5.40;;;9.90;99.90;;;;;;5088741;28;20069;-61
2021/01/20 11:24:33;;;;;;;7.55;5.47;;;9.80;99.90;;;;;;5090022;28;20027;-60
2021/01/20 11:26:58;;;;;;;11.48;6.05;;;9.90;99.90;;;;;;5092368;28;20024;-61
2021/01/20 11:29:24;;;;;;;8.52;6.25;;;9.80;99.90;;;;;;5091135;28;20111;-60
2021/01/20 11:31:50;;;;;;;10.65;6.22;;;9.70;99.90;;;;;;5092388;28;20047;-60
2021/01/20 11:34:16;;;;;;;6.97;6.35;;;9.80;99.90;;;;;;5091187;28;20480;-60
2021/01/20 11:36:42;;;;;;;11.30;6.85;;;9.70;99.90;;;;;;5091496;28;20032;-60
2021/01/20 11:39:07;;;;;;;10.73;5.57;;;9.60;99.90;;;;;;5091117;28;20020;-60
2021/01/20 11:41:33;;;;;;;11.20;7.25;;;9.70;99.90;;;;;;5092142;28;20040;-64
2021/01/20 11:43:59;;;;;;;10.60;7.07;;;9.70;99.90;;;;;;5090936;28;20072;-59
2021/01/20 11:46:26;;;;;;;16.45;7.25;;;9.50;99.90;;;;;;5093887;28;20032;-60
2021/01/20 11:48:51;;;;;;;12.38;6.93;;;9.60;99.90;;;;;;5086558;28;20083;-60
2021/01/20 11:51:17;;;;;;;7.72;6.18;;;9.50;99.90;;;;;;5090803;28;20032;-60
2021/01/20 11:53:43;;;;;;;6.55;5.95;;;9.60;99.90;;;;;;5090492;28;20031;-60
2021/01/20 11:56:09;;;;;;;10.68;6.30;;;9.60;99.90;;;;;;5083320;28;20043;-60
2021/01/20 11:58:34;;;;;;;8.02;6.35;;;9.60;99.90;;;;;;5089707;28;20024;-60
2021/01/20 12:01:00;;;;;;;7.90;6.18;;;9.50;99.90;;;;;;5086812;28;20027;-60
2021/01/20 12:03:26;;;;;;;9.63;5.65;;;9.50;99.90;;;;;;5087683;28;20054;-60
2021/01/20 12:05:52;;;;;;;7.32;5.75;;;9.60;99.90;;;;;;5086539;28;20083;-60
2021/01/20 12:08:18;;;;;;;10.55;6.65;;;9.40;99.90;;;;;;5089851;28;20037;-60
2021/01/20 12:10:43;;;;;;;11.00;5.95;;;9.60;99.90;;;;;;5091672;28;20012;-60
2021/01/20 12:13:11;;;;;;;12.15;6.55;;;9.40;99.90;;;;;;5090007;28;20028;-61
2021/01/20 12:15:37;;;;;;;9.93;6.70;;;9.50;99.90;;;;;;5080618;28;20131;-61
2021/01/20 12:18:02;;;;;;;9.52;6.13;;;9.40;99.90;;;;;;5091622;28;20532;-61
2021/01/20 12:20:28;;;;;;;8.65;6.22;;;9.50;99.90;;;;;;5082568;28;20366;-61
2021/01/20 12:22:54;;;;;;;6.80;6.05;;;9.50;99.90;;;;;;5071915;28;20021;-61
2021/01/20 12:25:19;;;;;;;9.20;6.15;;;9.60;99.90;;;;;;5084640;28;20114;-60
2021/01/20 12:27:45;;;;;;;10.45;6.13;;;9.60;99.90;;;;;;5091500;28;20477;-61
2021/01/20 12:30:11;;;;;;;10.07;6.15;;;9.60;99.90;;;;;;5088235;28;20028;-64
2021/01/20 12:32:37;;;;;;;9.57;5.93;;;9.60;99.90;;;;;;5090578;28;20610;-61
2021/01/20 12:35:05;;;;;;;11.05;6.70;;;9.60;99.90;;;;;;5084224;28;20024;-61
2021/01/20 12:37:31;;;;;;;9.07;6.15;;;9.60;99.90;;;;;;5093776;28;20027;-60
2021/01/20 12:39:56;;;;;;;13.00;6.15;;;9.50;99.90;;;;;;5089610;28;20407;-60
2021/01/20 12:42:22;;;;;;;20.05;7.03;;;9.60;99.90;;;;;;5090610;28;20040;-60
2021/01/20 12:44:48;;;;;;;10.25;6.43;;;9.70;99.90;;;;;;5086251;28;20043;-60
2021/01/20 12:47:13;;;;;;;13.20;7.10;;;9.70;99.90;;;;;;5088641;28;20094;-60
2021/01/20 12:49:39;;;;;;;10.50;6.88;;;9.60;99.90;;;;;;5087258;28;20023;-60